createdAt,value
2023-05-14T00:00:50.645Z,37.47
2023-05-14T00:06:24.605Z,37.36
2023-05-14T00:09:18.662Z,37.24
2023-05-14T00:12:05.562Z,37.12
2023-05-14T00:14:38.679Z,37.14
2023-05-14T00:17:25.575Z,37.09
2023-05-14T00:19:59.630Z,37.08
2023-05-14T00:22:47.607Z,37.02
2023-05-14T00:25:20.628Z,37.07
2023-05-14T00:28:07.562Z,36.85
2023-05-14T00:30:40.691Z,37.03
2023-05-14T00:33:28.786Z,36.93
2023-05-14T00:36:02.631Z,36.82
2023-05-14T00:38:49.535Z,36.76
2023-05-14T00:41:22.588Z,36.77
2023-05-14T00:44:09.500Z,36.77
2023-05-14T00:46:43.998Z,36.73
2023-05-14T00:49:30.564Z,36.81
2023-05-14T00:52:04.536Z,36.80
2023-05-14T00:54:54.510Z,36.88
2023-05-14T00:57:27.552Z,36.90
2023-05-14T01:00:17.613Z,37.00
2023-05-14T01:02:50.763Z,36.96
2023-05-14T01:05:57.452Z,37.03
2023-05-14T01:08:46.546Z,36.99
2023-05-14T01:11:40.378Z,37.11
2023-05-14T01:14:49.587Z,37.10
2023-05-14T01:17:40.393Z,37.13
2023-05-14T01:20:21.803Z,37.15
2023-05-14T01:23:02.436Z,37.22
2023-05-14T01:25:42.512Z,37.22
2023-05-14T01:28:25.430Z,37.20
2023-05-14T01:31:16.518Z,37.30
2023-05-14T01:33:56.496Z,37.28
2023-05-14T01:36:37.492Z,37.26
2023-05-14T01:39:18.396Z,37.38
2023-05-14T01:41:59.439Z,37.35
2023-05-14T01:44:40.423Z,37.48
2023-05-14T01:47:20.473Z,37.56
2023-05-14T01:50:00.432Z,37.58
2023-05-14T01:52:40.468Z,37.66
2023-05-14T01:55:20.514Z,37.73
2023-05-14T01:58:01.498Z,37.64
2023-05-14T02:00:41.447Z,37.82
2023-05-14T02:03:21.898Z,37.85
2023-05-14T02:06:02.351Z,37.88
2023-05-14T02:08:42.406Z,37.91
2023-05-14T02:11:22.457Z,37.97
2023-05-14T02:14:02.525Z,38.07
2023-05-14T02:16:42.353Z,38.09
2023-05-14T02:19:22.499Z,38.12
2023-05-14T02:22:03.375Z,38.21
2023-05-14T02:24:43.423Z,38.27
2023-05-14T02:27:23.369Z,38.29
2023-05-14T02:30:03.350Z,38.38
2023-05-14T02:32:43.339Z,38.37
2023-05-14T02:35:23.534Z,38.40
2023-05-14T02:38:03.468Z,38.40
2023-05-14T02:40:44.442Z,38.57
2023-05-14T02:43:24.410Z,38.65
2023-05-14T02:46:04.426Z,38.55
2023-05-14T02:48:44.192Z,38.69
2023-05-14T02:51:27.396Z,38.70
2023-05-14T02:54:07.161Z,38.69
2023-05-14T02:56:47.536Z,38.74
2023-05-14T02:59:27.376Z,38.70
2023-05-14T03:02:07.357Z,38.86
2023-05-14T03:04:48.168Z,38.93
2023-05-14T03:07:28.309Z,39.07
2023-05-14T03:10:08.362Z,39.26
2023-05-14T03:12:48.313Z,39.23
2023-05-14T03:15:28.256Z,39.33
2023-05-14T03:18:08.361Z,39.36
2023-05-14T03:20:48.151Z,39.45
2023-05-14T03:23:29.323Z,39.48
2023-05-14T03:26:09.094Z,39.44
2023-05-14T03:28:49.226Z,39.63
2023-05-14T03:31:29.162Z,39.81
2023-05-14T03:34:09.344Z,39.80
2023-05-14T03:36:49.092Z,39.94
2023-05-14T03:39:29.237Z,40.00
2023-05-14T03:42:10.270Z,40.04
2023-05-14T03:44:50.391Z,40.16
2023-05-14T03:47:30.211Z,40.31
2023-05-14T03:50:10.530Z,40.50
2023-05-14T03:52:51.084Z,40.71
2023-05-14T03:55:31.155Z,41.10
2023-05-14T03:58:14.219Z,41.62
2023-05-14T04:00:54.206Z,41.88
2023-05-14T04:03:34.365Z,42.35
2023-05-14T04:06:28.020Z,42.81
2023-05-14T04:09:15.132Z,43.03
2023-05-14T04:11:48.116Z,43.03
2023-05-14T04:14:35.151Z,43.10
2023-05-14T04:17:10.077Z,43.28
2023-05-14T04:19:57.015Z,43.32
2023-05-14T04:22:32.141Z,43.30
2023-05-14T04:25:18.936Z,43.36
2023-05-14T04:27:53.127Z,43.36
2023-05-14T04:30:39.997Z,43.41
2023-05-14T04:33:20.071Z,43.33
2023-05-14T04:35:59.964Z,43.16
2023-05-14T04:38:40.000Z,43.07
2023-05-14T04:41:19.968Z,42.92
2023-05-14T04:44:03.043Z,42.67
2023-05-14T04:46:42.913Z,42.48
2023-05-14T04:49:23.024Z,42.03
2023-05-14T04:52:02.969Z,41.66
2023-05-14T04:54:43.131Z,41.44
2023-05-14T04:57:22.970Z,41.19
2023-05-14T05:00:05.991Z,40.89
2023-05-14T05:02:46.086Z,40.87
2023-05-14T05:05:39.855Z,40.54
2023-05-14T05:08:26.911Z,40.40
2023-05-14T05:11:00.049Z,40.24
2023-05-14T05:13:47.875Z,39.94
2023-05-14T05:16:21.091Z,39.71
2023-05-14T05:19:07.995Z,39.40
2023-05-14T05:21:41.946Z,39.22
2023-05-14T05:24:28.897Z,39.14
2023-05-14T05:27:02.138Z,38.82
2023-05-14T05:29:49.124Z,38.88
2023-05-14T05:32:23.425Z,38.50
2023-05-14T05:35:09.967Z,38.44
2023-05-14T05:37:49.918Z,38.20
2023-05-14T05:40:29.883Z,37.81
2023-05-14T05:43:09.921Z,37.83
2023-05-14T05:45:49.809Z,37.77
2023-05-14T05:48:30.012Z,37.45
2023-05-14T05:51:10.023Z,37.34
2023-05-14T05:53:49.884Z,37.22
2023-05-14T05:56:29.850Z,37.16
2023-05-14T05:59:10.121Z,37.05
2023-05-14T06:01:50.937Z,36.91
2023-05-14T06:04:44.736Z,37.07
2023-05-14T06:07:31.801Z,36.98
2023-05-14T06:10:12.880Z,36.78
2023-05-14T06:12:52.869Z,36.60
2023-05-14T06:15:32.924Z,36.53
2023-05-14T06:18:12.761Z,36.63
2023-05-14T06:20:52.907Z,36.67
2023-05-14T06:23:32.860Z,36.57
2023-05-14T06:26:12.905Z,36.26
2023-05-14T06:28:52.714Z,36.14
2023-05-14T06:31:32.841Z,36.09
2023-05-14T06:34:12.714Z,36.21
2023-05-14T06:36:53.824Z,36.07
2023-05-14T06:39:33.763Z,36.04
2023-05-14T06:42:13.722Z,36.13
2023-05-14T06:44:53.698Z,36.16
2023-05-14T06:47:33.821Z,35.94
2023-05-14T06:50:13.651Z,35.97
2023-05-14T06:52:53.803Z,36.07
2023-05-14T06:55:33.889Z,36.10
2023-05-14T06:58:14.722Z,36.13
2023-05-14T07:00:54.669Z,36.22
2023-05-14T07:03:34.721Z,36.20
2023-05-14T07:06:14.664Z,36.35
2023-05-14T07:08:54.720Z,36.39
2023-05-14T07:11:34.664Z,36.42
2023-05-14T07:14:14.726Z,36.48
2023-05-14T07:16:54.720Z,36.22
2023-05-14T07:19:34.753Z,35.66
2023-05-14T07:22:14.663Z,35.49
2023-05-14T07:24:54.809Z,35.24
2023-05-14T07:27:34.653Z,34.83
2023-05-14T07:30:15.831Z,34.37
2023-05-14T07:32:56.642Z,34.39
2023-05-14T07:35:36.651Z,33.76
2023-05-14T07:38:16.590Z,33.91
2023-05-14T07:40:56.635Z,33.99
2023-05-14T07:43:36.583Z,33.94
2023-05-14T07:46:16.842Z,33.98
2023-05-14T07:48:56.587Z,33.88
2023-05-14T07:51:36.633Z,33.93
2023-05-14T07:54:16.581Z,33.91
2023-05-14T07:56:56.732Z,33.78
2023-05-14T07:59:36.881Z,33.55
2023-05-14T08:02:17.160Z,33.50
2023-05-14T08:04:57.597Z,33.07
2023-05-14T08:07:37.655Z,32.83
2023-05-14T08:10:17.612Z,32.60
2023-05-14T08:12:57.641Z,32.63
2023-05-14T08:15:45.169Z,32.59
2023-05-14T08:18:25.676Z,32.61
2023-05-14T08:21:05.575Z,32.58
2023-05-14T08:23:45.693Z,32.08
2023-05-14T08:26:25.465Z,32.25
2023-05-14T08:29:05.827Z,32.31
2023-05-14T08:31:45.464Z,31.62
2023-05-14T08:34:29.094Z,31.43
2023-05-14T08:37:09.458Z,31.53
2023-05-14T08:39:50.907Z,30.87
2023-05-14T08:42:32.556Z,30.95
2023-05-14T08:45:35.340Z,31.26
2023-05-14T08:48:24.502Z,31.45
2023-05-14T08:51:06.449Z,31.32
2023-05-14T08:53:47.362Z,31.15
2023-05-14T08:56:41.287Z,31.11
2023-05-14T08:59:28.402Z,30.99
2023-05-14T09:02:05.320Z,30.83
2023-05-14T09:05:02.652Z,30.12
2023-05-14T09:07:56.311Z,29.23
2023-05-14T09:10:43.327Z,29.64
2023-05-14T09:13:16.493Z,29.44
2023-05-14T09:16:05.333Z,29.66
2023-05-14T09:18:39.492Z,29.77
2023-05-14T09:21:27.304Z,29.85
2023-05-14T09:24:04.499Z,29.23
2023-05-14T09:26:51.273Z,29.13
2023-05-14T09:29:26.221Z,29.39
2023-05-14T09:32:16.777Z,29.38
2023-05-14T09:34:50.397Z,28.56
2023-05-14T09:37:40.338Z,28.59
2023-05-14T09:40:15.201Z,28.54
2023-05-14T09:43:03.136Z,28.51
2023-05-14T09:45:37.990Z,27.74
2023-05-14T09:48:26.329Z,27.49
2023-05-14T09:51:02.304Z,27.40
2023-05-14T09:53:54.245Z,26.89
2023-05-14T09:56:28.362Z,26.71
2023-05-14T09:59:16.220Z,26.21
2023-05-14T10:01:51.157Z,25.15
2023-05-14T10:04:40.258Z,24.84
2023-05-14T10:07:15.977Z,24.54
2023-05-14T10:10:08.161Z,24.91
2023-05-14T10:12:46.360Z,25.13
2023-05-14T10:15:44.163Z,24.37
2023-05-14T10:18:22.260Z,24.51
2023-05-14T10:21:13.214Z,24.69
2023-05-14T10:23:48.251Z,24.15
2023-05-14T10:26:35.148Z,23.86
2023-05-14T10:29:10.053Z,23.67
2023-05-14T10:32:00.165Z,23.60
2023-05-14T10:34:44.233Z,23.02
2023-05-14T10:37:34.136Z,23.65
2023-05-14T10:40:10.704Z,23.69
2023-05-14T10:42:57.100Z,23.34
2023-05-14T10:45:30.712Z,23.63
2023-05-14T10:48:18.154Z,24.69
2023-05-14T10:50:52.253Z,25.40
2023-05-14T10:53:41.113Z,25.93
2023-05-14T10:56:20.720Z,26.53
2023-05-14T10:59:07.072Z,26.86
2023-05-14T11:01:41.204Z,27.46
2023-05-14T11:04:31.088Z,28.34
2023-05-14T11:07:06.144Z,29.13
2023-05-14T11:09:54.071Z,29.65
2023-05-14T11:12:28.807Z,29.88
2023-05-14T11:15:21.240Z,29.84
2023-05-14T11:17:56.162Z,29.79
2023-05-14T11:20:43.030Z,29.71
2023-05-14T11:23:16.221Z,29.74
2023-05-14T11:26:04.029Z,29.79
2023-05-14T11:28:39.183Z,30.23
2023-05-14T11:31:26.092Z,30.68
2023-05-14T11:34:01.177Z,31.14
2023-05-14T11:36:49.015Z,30.94
2023-05-14T11:39:26.119Z,31.07
2023-05-14T11:42:23.024Z,31.17
2023-05-14T11:44:58.094Z,31.66
2023-05-14T11:47:46.019Z,31.33
2023-05-14T11:50:19.670Z,30.83
2023-05-14T11:53:07.068Z,30.53
2023-05-14T11:55:44.026Z,30.62
2023-05-14T11:58:31.946Z,30.56
2023-05-14T12:01:05.003Z,30.47
2023-05-14T12:03:52.063Z,30.50
2023-05-14T12:06:26.176Z,30.27
2023-05-14T12:09:13.987Z,30.53
2023-05-14T12:11:47.151Z,30.40
2023-05-14T12:14:33.889Z,30.39
2023-05-14T12:17:08.986Z,29.92
2023-05-14T12:19:59.094Z,29.98
2023-05-14T12:22:33.874Z,30.10
2023-05-14T12:25:21.946Z,30.07
2023-05-14T12:27:54.946Z,29.43
2023-05-14T12:30:44.853Z,28.46
2023-05-14T12:33:18.219Z,27.22
2023-05-14T12:36:20.311Z,26.21
2023-05-14T12:38:56.177Z,25.83
2023-05-14T12:41:42.925Z,25.67
2023-05-14T12:44:15.995Z,25.41
2023-05-14T12:47:02.863Z,25.10
2023-05-14T12:49:36.418Z,25.16
2023-05-14T12:52:37.748Z,24.31
2023-05-14T12:55:13.929Z,23.96
2023-05-14T12:58:00.826Z,24.16
2023-05-14T13:00:34.042Z,24.46
2023-05-14T13:03:20.866Z,24.27
2023-05-14T13:05:55.033Z,24.06
2023-05-14T13:08:43.319Z,24.02
2023-05-14T13:11:16.878Z,24.44
2023-05-14T13:14:03.814Z,24.74
2023-05-14T13:16:36.907Z,24.58
2023-05-14T13:19:23.889Z,24.56
